Lopez Island, WA (98261)

6:42 PM PDT on March 29, 2015 (GMT -0700)
APRSWXNET Lopez Village WA US | | Change Station
CLOSE
Current Station
Personal Weather Station
Location: Lopez Island, WA
Elevation: 98 ft
Nearby Weather Stations

Elev 98 ft 48.44 °N, 122.89 °W | Updated 41 minutes ago

Overcast
Overcast
56 °F
Feels Like 56 °F
N
1
Wind Variable Wind from SE
Gusts 0.0 mph

Today
High -- | Low -- °F
--% Chance of Precip.
Yesterday
High -- | Low -- °F
Precip. -- in
6:55 AM 7:37 PM
Waxing Gibbous, 76% visible
Pressure 30.16 in
Visibility 8.0 miles
Clouds Overcast 6000 ft
Dew Point 49 °F
Humidity 76%
Rainfall in
Snow Depth Not available.
UV 0 out of 12
Pollen 6.80 out of 12
Air Quality Not available.
Flu Activity Not available.
METAR KFHR 300053Z AUTO 36004KT 8SM -RA OVC060 12/11 A3016 RMK AO2 SLP213 T01220106 PNO

More Conditions Fewer Conditions

Pressure 30.16 in
Visibility 8.0 miles
Clouds Overcast 6000 ft
Dew Point 49 °F
Humidity 76%
Rainfall in
Snow Depth Not available.
UV 0 out of 12
Pollen 6.80 out of 12
Air Quality Not available.
Flu Activity Not available.
METAR KFHR 300053Z AUTO 36004KT 8SM -RA OVC060 12/11 A3016 RMK AO2 SLP213 T01220106 PNO

More Conditions Fewer Conditions

10-Day Weather Forecast

Almanac

Astronomy

Mar. 29, 2015 Rise Set
Actual Time
Civil Twilight
Nautical Twilight
Astronomical Twilight
Moon
Length of Visible Light
Length of Day
Tomorrow will be .
, % of the Moon is Illuminated

Today's Extremes

State Highs State Lows

Community

WunderPhotos

Upload Photos

1,809,397 photos uploaded!

WunderBlogs® & News

Nearby

Air Quality

  Air Quality AQ Index Pollutant
Not available.

Snow Depth

Station Depth Elevation

Earthquake Activity

City Distance Mag. Time & Date
Minimum magnitude displayed is 2.5.

Coastal Water Temperatures

Place Temperature

Stations

Nearby Weather Stations

Station Location Temp. Windchill Dew Point Humidity Wind Precip. Elev Updated Type